Salt Lake City, Utah
Traffic Map
Current Weather Conditions
Salt Lake City, Utah
Clear
Clear
24°
Feels Like: 24°
Wind Chill: 24° Ceiling: Unl
Heat Index: 24° Visibility: 10mi
Dew Point: Wind: 10mph
Humidity: 32% Direction: 150° (SSE)
Pressure: 29.96in Gusts: 0mph
Raw Report DataKSLC 170453Z 15009KT 10SM CLR 24/06 A2996 RMK AO2 SLP090 T02390061
Traffic Incident Summary
Active as of:
Severity:
Category:
InformationThere was an issue retrieving the traffic information for this location. Please try a different location or try again shortly.
Advertisements
Track Severe Weather on mobile